createdAt,value
2018-04-08T00:01:12.370Z,98.40
2018-04-08T00:03:40.690Z,98.00
2018-04-08T00:06:08.217Z,98.00
2018-04-08T00:08:35.755Z,98.10
2018-04-08T00:11:04.070Z,98.20
2018-04-08T00:13:31.628Z,98.20
2018-04-08T00:15:59.187Z,98.30
2018-04-08T00:18:26.682Z,98.00
2018-04-08T00:20:54.250Z,98.30
2018-04-08T00:23:21.757Z,98.50
2018-04-08T00:25:49.372Z,98.60
2018-04-08T00:28:17.026Z,98.60
2018-04-08T00:30:44.641Z,98.80
2018-04-08T00:33:12.167Z,98.50
2018-04-08T00:35:40.443Z,98.90
2018-04-08T00:38:08.763Z,99.20
2018-04-08T00:40:36.295Z,99.20
2018-04-08T00:43:03.834Z,99.20
2018-04-08T00:45:31.385Z,99.50
2018-04-08T00:47:59.798Z,99.40
2018-04-08T00:50:27.336Z,99.30
2018-04-08T00:52:54.866Z,99.20
2018-04-08T00:55:22.544Z,99.40
2018-04-08T00:57:50.937Z,99.30
2018-04-08T01:00:19.215Z,99.00
2018-04-08T01:02:46.772Z,99.00
2018-04-08T01:05:14.274Z,99.30
2018-04-08T01:07:41.785Z,99.50
2018-04-08T01:10:09.899Z,99.60
2018-04-08T01:12:37.419Z,99.40
2018-04-08T01:15:04.962Z,99.10
2018-04-08T01:17:32.488Z,99.30
2018-04-08T01:20:00.292Z,99.60
2018-04-08T01:22:27.797Z,99.30
2018-04-08T01:24:55.320Z,99.80
2018-04-08T01:27:22.847Z,99.30
2018-04-08T01:29:51.126Z,99.50
2018-04-08T01:32:19.570Z,99.70
2018-04-08T01:34:47.085Z,99.70
2018-04-08T01:37:14.639Z,99.90
2018-04-08T01:39:42.298Z,99.40
2018-04-08T01:42:09.835Z,99.90
2018-04-08T01:44:38.160Z,99.70
2018-04-08T01:47:05.690Z,99.70
2018-04-08T01:49:33.355Z,99.70
2018-04-08T01:52:00.867Z,99.80
2018-04-08T01:54:28.686Z,99.60
2018-04-08T01:56:56.197Z,99.60
2018-04-08T01:59:24.634Z,99.20
2018-04-08T02:01:52.169Z,99.20
2018-04-08T02:04:20.479Z,99.60
2018-04-08T02:06:48.004Z,99.60
2018-04-08T02:09:15.530Z,99.70
2018-04-08T02:11:43.101Z,99.70
2018-04-08T02:14:11.399Z,99.80
2018-04-08T02:16:38.937Z,99.80
2018-04-08T02:19:07.242Z,99.70
2018-04-08T02:21:34.745Z,99.60
2018-04-08T02:24:02.360Z,99.70
2018-04-08T02:26:29.911Z,99.90
2018-04-08T02:28:57.447Z,99.80
2018-04-08T02:31:25.759Z,99.90
2018-04-08T02:33:53.286Z,99.90
2018-04-08T02:36:21.546Z,99.90
2018-04-08T02:38:49.868Z,99.90
2018-04-08T02:41:17.419Z,99.90
2018-04-08T02:43:45.048Z,99.90
2018-04-08T02:46:13.336Z,99.90
2018-04-08T02:48:40.839Z,99.90
2018-04-08T02:51:08.470Z,99.90
2018-04-08T02:53:35.986Z,99.90
2018-04-08T02:56:03.875Z,99.90
2018-04-08T02:58:32.136Z,99.90
2018-04-08T03:01:00.443Z,99.90
2018-04-08T03:03:27.959Z,99.90
2018-04-08T03:05:56.219Z,99.90
2018-04-08T03:08:23.776Z,99.90
2018-04-08T03:10:51.361Z,99.90
2018-04-08T03:13:19.743Z,99.90
2018-04-08T03:15:48.068Z,99.90
2018-04-08T03:18:15.572Z,99.90
2018-04-08T03:20:43.899Z,99.90
2018-04-08T03:23:11.439Z,99.90
2018-04-08T03:25:39.066Z,99.90
2018-04-08T03:28:07.395Z,99.90
2018-04-08T03:30:34.900Z,99.90
2018-04-08T03:33:02.404Z,99.90
2018-04-08T03:35:29.917Z,99.90
2018-04-08T03:37:58.225Z,99.90
2018-04-08T03:40:25.739Z,99.90
2018-04-08T03:42:54.017Z,99.90
2018-04-08T03:45:22.334Z,99.90
2018-04-08T03:47:49.869Z,99.90
2018-04-08T03:50:18.143Z,99.90
2018-04-08T03:52:45.680Z,99.90
2018-04-08T03:55:13.986Z,99.90
2018-04-08T03:57:41.514Z,99.90
2018-04-08T04:00:09.922Z,99.90
2018-04-08T04:02:37.493Z,99.90
2018-04-08T04:05:05.033Z,99.90
2018-04-08T04:07:32.614Z,99.90
2018-04-08T04:10:00.164Z,99.90
2018-04-08T04:12:27.717Z,99.90
2018-04-08T04:14:55.228Z,99.90
2018-04-08T04:17:22.955Z,99.90
2018-04-08T04:20:02.214Z,99.90
2018-04-08T04:22:41.619Z,99.90
2018-04-08T04:25:26.055Z,99.90
2018-04-08T04:27:53.597Z,99.90
2018-04-08T04:30:21.888Z,99.90
2018-04-08T04:32:49.414Z,99.90
2018-04-08T04:35:16.919Z,99.90
2018-04-08T04:37:44.504Z,99.90
2018-04-08T04:40:12.059Z,99.90
2018-04-08T04:42:39.666Z,99.90
2018-04-08T04:45:07.538Z,99.90
2018-04-08T04:47:35.043Z,99.90
2018-04-08T04:50:02.573Z,99.90
2018-04-08T04:52:30.076Z,99.90
2018-04-08T04:54:57.642Z,99.90
2018-04-08T04:57:25.942Z,99.90
2018-04-08T04:59:53.523Z,99.90
2018-04-08T05:02:21.061Z,99.90
2018-04-08T05:04:48.574Z,99.90
2018-04-08T05:07:16.455Z,99.90
2018-04-08T05:09:44.030Z,99.90
2018-04-08T05:12:12.447Z,99.90
2018-04-08T05:14:39.975Z,99.90
2018-04-08T05:17:07.487Z,99.90
2018-04-08T05:19:34.988Z,99.90
2018-04-08T05:22:02.865Z,99.90
2018-04-08T05:24:30.394Z,99.90
2018-04-08T05:26:57.948Z,99.90
2018-04-08T05:29:25.481Z,99.90
2018-04-08T05:31:53.022Z,99.80
2018-04-08T05:34:20.556Z,99.90
2018-04-08T05:36:48.069Z,99.50
2018-04-08T05:39:15.604Z,99.40
2018-04-08T05:41:43.134Z,99.50
2018-04-08T05:44:10.683Z,99.40
2018-04-08T05:46:38.219Z,99.90
2018-04-08T05:49:06.531Z,99.80
2018-04-08T05:51:34.044Z,99.70
2018-04-08T05:54:01.555Z,99.10
2018-04-08T05:56:29.112Z,98.50
2018-04-08T05:58:56.665Z,98.40
2018-04-08T06:01:24.159Z,97.80
2018-04-08T06:03:51.684Z,96.00
2018-04-08T06:06:19.224Z,95.40
2018-04-08T06:08:46.801Z,95.30
2018-04-08T06:11:14.392Z,94.90
2018-04-08T06:13:41.885Z,93.20
2018-04-08T06:16:10.272Z,93.80
2018-04-08T06:18:38.262Z,93.90
2018-04-08T06:21:05.782Z,94.50
2018-04-08T06:23:33.360Z,92.40
2018-04-08T06:26:00.911Z,92.40
2018-04-08T06:28:29.197Z,93.20
2018-04-08T06:30:56.706Z,93.20
2018-04-08T06:33:24.537Z,93.20
2018-04-08T06:35:52.040Z,93.10
2018-04-08T06:38:19.585Z,93.20
2018-04-08T06:40:47.106Z,93.20
2018-04-08T06:43:14.633Z,93.20
2018-04-08T06:45:42.993Z,93.00
2018-04-08T06:48:11.311Z,92.40
2018-04-08T06:50:38.838Z,92.40
2018-04-08T06:53:07.112Z,91.70
2018-04-08T06:55:35.428Z,90.80
2018-04-08T06:58:02.967Z,90.80
2018-04-08T07:00:30.462Z,90.50
2018-04-08T07:02:58.063Z,91.30
2018-04-08T07:05:25.577Z,91.10
2018-04-08T07:07:53.116Z,91.90
2018-04-08T07:10:20.668Z,90.90
2018-04-08T07:12:48.229Z,90.20
2018-04-08T07:15:15.759Z,90.70
2018-04-08T07:17:44.068Z,88.00
2018-04-08T07:20:11.586Z,88.00
2018-04-08T07:22:39.894Z,89.20
2018-04-08T07:25:07.457Z,89.30
2018-04-08T07:27:34.972Z,89.80
2018-04-08T07:30:03.253Z,88.70
2018-04-08T07:32:31.861Z,87.20
2018-04-08T07:34:59.454Z,87.20
2018-04-08T07:37:29.143Z,86.70
2018-04-08T07:39:57.724Z,84.90
2018-04-08T07:42:25.240Z,84.80
2018-04-08T07:44:53.515Z,82.40
2018-04-08T07:47:22.599Z,82.20
2018-04-08T07:49:50.089Z,82.30
2018-04-08T07:52:17.826Z,82.40
2018-04-08T07:54:46.537Z,82.90
2018-04-08T07:57:14.802Z,81.60
2018-04-08T07:59:43.103Z,82.90
2018-04-08T08:02:10.649Z,82.90
2018-04-08T08:04:38.147Z,84.20
2018-04-08T08:07:05.742Z,81.90
2018-04-08T08:09:33.372Z,81.60
2018-04-08T08:12:00.920Z,81.10
2018-04-08T08:14:28.468Z,81.50
2018-04-08T08:16:56.398Z,79.00
2018-04-08T08:19:23.941Z,79.50
2018-04-08T08:21:52.288Z,81.50
2018-04-08T08:24:19.843Z,81.40
2018-04-08T08:26:47.408Z,79.80
2018-04-08T08:29:14.966Z,77.90
2018-04-08T08:31:42.539Z,79.40
2018-04-08T08:34:10.160Z,80.40
2018-04-08T08:36:37.677Z,78.70
2018-04-08T08:39:06.477Z,76.60
2018-04-08T08:41:35.111Z,76.50
2018-04-08T08:44:03.192Z,76.00
2018-04-08T08:46:31.312Z,76.10
2018-04-08T08:48:58.891Z,75.40
2018-04-08T08:51:26.633Z,75.30
2018-04-08T08:53:55.421Z,71.50
2018-04-08T08:56:23.000Z,71.20
2018-04-08T08:58:50.606Z,70.50
2018-04-08T09:01:18.938Z,70.90
2018-04-08T09:03:46.900Z,70.80
2018-04-08T09:06:14.561Z,67.00
2018-04-08T09:08:42.160Z,65.50
2018-04-08T09:11:09.708Z,63.80
2018-04-08T09:13:37.229Z,67.40
2018-04-08T09:16:15.579Z,65.00
2018-04-08T09:19:04.343Z,64.20
2018-04-08T09:21:40.259Z,59.70
2018-04-08T09:24:09.985Z,58.10
2018-04-08T09:26:41.461Z,57.60
2018-04-08T09:29:10.754Z,59.50
2018-04-08T09:31:39.425Z,59.50
2018-04-08T09:34:07.086Z,58.50
2018-04-08T09:36:34.823Z,57.10
2018-04-08T09:39:02.427Z,57.40
2018-04-08T09:41:29.998Z,56.70
2018-04-08T09:43:57.600Z,58.30
2018-04-08T09:46:25.102Z,58.70
2018-04-08T09:48:53.497Z,58.20
2018-04-08T09:51:22.095Z,54.60
2018-04-08T09:53:49.697Z,54.60
2018-04-08T09:56:17.225Z,52.00
2018-04-08T09:58:44.850Z,51.80
2018-04-08T10:01:17.912Z,51.10
2018-04-08T10:03:49.864Z,49.70
2018-04-08T10:06:17.370Z,49.70
2018-04-08T10:08:49.152Z,52.60
2018-04-08T10:11:16.885Z,52.70
2018-04-08T10:13:45.173Z,51.50
2018-04-08T10:16:12.857Z,51.40
2018-04-08T10:18:40.713Z,50.60
2018-04-08T10:21:08.611Z,49.60
2018-04-08T10:23:36.872Z,47.70
2018-04-08T10:26:05.907Z,46.80
2018-04-08T10:28:34.494Z,46.20
2018-04-08T10:31:13.810Z,47.80
2018-04-08T10:33:41.325Z,47.80
2018-04-08T10:36:10.492Z,45.40
2018-04-08T10:38:39.009Z,45.00
2018-04-08T10:41:06.898Z,46.20
2018-04-08T10:43:34.662Z,45.90
2018-04-08T10:46:02.587Z,46.80
2018-04-08T10:48:31.266Z,46.80
2018-04-08T10:50:59.938Z,45.30
2018-04-08T10:53:28.317Z,42.70
2018-04-08T10:55:56.648Z,42.10
2018-04-08T10:58:24.177Z,42.00
2018-04-08T11:00:51.740Z,41.10
2018-04-08T11:03:19.378Z,41.40
2018-04-08T11:05:46.920Z,40.80
2018-04-08T11:08:15.870Z,42.20
2018-04-08T11:10:43.424Z,42.20
2018-04-08T11:13:10.966Z,43.00
2018-04-08T11:15:38.529Z,43.30
2018-04-08T11:18:06.051Z,44.70
2018-04-08T11:20:33.577Z,44.20
2018-04-08T11:23:01.160Z,45.00
2018-04-08T11:25:29.433Z,43.70
2018-04-08T11:27:57.761Z,45.90
2018-04-08T11:30:25.282Z,45.80
2018-04-08T11:32:52.822Z,44.20
2018-04-08T11:35:20.378Z,46.10
2018-04-08T11:37:48.727Z,45.50
2018-04-08T11:40:16.273Z,45.60
2018-04-08T11:42:43.901Z,44.50
2018-04-08T11:45:11.430Z,45.10
2018-04-08T11:47:39.719Z,45.50
2018-04-08T11:50:08.128Z,46.70
2018-04-08T11:52:35.643Z,46.70
2018-04-08T11:55:03.348Z,47.30
2018-04-08T11:57:30.883Z,45.80
2018-04-08T11:59:58.471Z,44.30
2018-04-08T12:02:25.995Z,44.30
2018-04-08T12:04:53.578Z,43.70
2018-04-08T12:07:21.101Z,45.00
2018-04-08T12:09:49.394Z,45.70
2018-04-08T12:12:17.248Z,45.70
2018-04-08T12:14:44.997Z,45.80
2018-04-08T12:17:12.498Z,45.20
2018-04-08T12:19:40.114Z,45.30
2018-04-08T12:22:08.395Z,46.10
2018-04-08T12:24:36.722Z,45.60
2018-04-08T12:27:06.609Z,45.60
2018-04-08T12:29:34.119Z,45.80
2018-04-08T12:32:01.653Z,44.90
2018-04-08T12:34:29.198Z,44.10
2018-04-08T12:36:56.738Z,43.10
2018-04-08T12:39:24.299Z,43.50
2018-04-08T12:41:51.907Z,44.90
2018-04-08T12:44:19.805Z,44.20
2018-04-08T12:46:48.096Z,43.30
2018-04-08T12:49:15.634Z,43.30
2018-04-08T12:51:44.052Z,43.80
2018-04-08T12:54:11.707Z,43.70
2018-04-08T12:56:40.471Z,43.50
2018-04-08T12:59:08.774Z,43.20
2018-04-08T13:01:36.615Z,43.20
2018-04-08T13:04:05.773Z,42.90
2018-04-08T13:06:34.086Z,43.30
2018-04-08T13:09:01.765Z,43.30
2018-04-08T13:11:29.535Z,43.00
2018-04-08T13:13:57.158Z,43.00
2018-04-08T13:16:25.636Z,42.50
2018-04-08T13:18:53.312Z,42.50
2018-04-08T13:21:21.596Z,41.80
2018-04-08T13:23:49.463Z,41.80
2018-04-08T13:26:17.149Z,42.00
2018-04-08T13:28:44.774Z,42.00
2018-04-08T13:31:13.076Z,42.10
2018-04-08T13:33:40.728Z,42.10
2018-04-08T13:36:08.249Z,42.10
2018-04-08T13:38:36.611Z,41.70
2018-04-08T13:41:04.191Z,41.70
2018-04-08T13:43:31.730Z,41.50
2018-04-08T13:45:59.285Z,41.60
2018-04-08T13:48:26.801Z,41.50
2018-04-08T13:50:54.360Z,40.80
2018-04-08T13:53:21.946Z,40.00
2018-04-08T13:55:49.473Z,40.60
2018-04-08T13:58:17.018Z,40.30
2018-04-08T14:00:44.526Z,40.60
2018-04-08T14:03:12.063Z,41.10
2018-04-08T14:05:39.659Z,41.70
2018-04-08T14:08:07.210Z,40.00
2018-04-08T14:10:34.761Z,38.60
2018-04-08T14:13:02.276Z,37.80
2018-04-08T14:15:29.809Z,37.80
2018-04-08T14:17:58.092Z,37.20
2018-04-08T14:20:25.611Z,37.10
2018-04-08T14:22:53.167Z,37.60
2018-04-08T14:25:20.727Z,38.60
2018-04-08T14:27:48.272Z,38.10
2018-04-08T14:30:15.782Z,37.60
2018-04-08T14:32:43.300Z,37.60
2018-04-08T14:35:12.375Z,37.70
2018-04-08T14:37:39.907Z,37.70
2018-04-08T14:40:07.468Z,38.00
2018-04-08T14:42:35.028Z,37.50
2018-04-08T14:45:02.534Z,35.20
2018-04-08T14:47:30.106Z,36.60
2018-04-08T14:49:58.443Z,36.40
2018-04-08T14:52:25.983Z,36.20
2018-04-08T14:54:53.555Z,35.70
2018-04-08T14:57:21.111Z,36.70
2018-04-08T14:59:48.625Z,36.20
2018-04-08T15:02:16.944Z,34.80
2018-04-08T15:04:44.507Z,34.80
2018-04-08T15:07:12.102Z,35.70
2018-04-08T15:09:39.626Z,35.40
2018-04-08T15:12:07.742Z,35.70
2018-04-08T15:14:36.021Z,35.80
2018-04-08T15:17:03.895Z,35.80
2018-04-08T15:19:32.280Z,36.40
2018-04-08T15:21:59.766Z,36.30
2018-04-08T15:24:27.278Z,36.30
2018-04-08T15:26:55.575Z,36.50
2018-04-08T15:29:23.399Z,36.50
2018-04-08T15:31:50.934Z,35.80
2018-04-08T15:34:18.466Z,35.90
2018-04-08T15:36:46.021Z,35.70
2018-04-08T15:39:13.542Z,35.80
2018-04-08T15:41:41.107Z,35.80
2018-04-08T15:44:09.420Z,36.40
2018-04-08T15:46:36.936Z,36.30
2018-04-08T15:49:04.488Z,36.60
2018-04-08T15:51:32.045Z,36.40
2018-04-08T15:53:59.579Z,37.10
2018-04-08T15:56:27.082Z,36.80
2018-04-08T15:58:54.634Z,37.00
2018-04-08T16:01:22.966Z,36.60
2018-04-08T16:03:50.508Z,36.60
2018-04-08T16:06:18.062Z,36.90
2018-04-08T16:08:45.582Z,36.40
2018-04-08T16:11:13.886Z,37.40
2018-04-08T16:13:41.404Z,37.40
2018-04-08T16:16:09.677Z,35.40
2018-04-08T16:18:38.077Z,36.30
2018-04-08T16:21:06.341Z,36.00
2018-04-08T16:23:34.692Z,36.00
2018-04-08T16:26:02.568Z,36.00
2018-04-08T16:28:30.969Z,35.70
2018-04-08T16:30:59.299Z,36.00
2018-04-08T16:33:26.807Z,36.00
2018-04-08T16:35:54.344Z,36.60
2018-04-08T16:38:22.655Z,36.80
2018-04-08T16:40:50.153Z,36.80
2018-04-08T16:43:17.871Z,36.40
2018-04-08T16:45:45.426Z,36.40
2018-04-08T16:48:12.989Z,36.30
2018-04-08T16:50:40.538Z,36.70
2018-04-08T16:53:08.742Z,36.40
2018-04-08T16:55:36.523Z,36.20
2018-04-08T16:58:04.981Z,36.10
2018-04-08T17:00:32.504Z,36.10
2018-04-08T17:03:00.819Z,36.00
2018-04-08T17:05:28.423Z,36.00
2018-04-08T17:07:55.931Z,36.20
2018-04-08T17:10:23.487Z,36.70
2018-04-08T17:12:51.001Z,37.30
2018-04-08T17:15:19.419Z,38.10
2018-04-08T17:17:46.942Z,38.00
2018-04-08T17:20:15.230Z,38.80
2018-04-08T17:22:42.832Z,38.80
2018-04-08T17:25:10.332Z,39.10
2018-04-08T17:27:37.874Z,39.40
2018-04-08T17:30:05.402Z,39.70
2018-04-08T17:32:33.229Z,39.90
2018-04-08T17:35:00.809Z,40.60
2018-04-08T17:37:28.295Z,40.50
2018-04-08T17:39:55.846Z,40.70
2018-04-08T17:42:23.371Z,40.90
2018-04-08T17:44:50.930Z,41.40
2018-04-08T17:47:18.451Z,41.40
2018-04-08T17:49:46.942Z,42.00
2018-04-08T17:52:15.252Z,42.30
2018-04-08T17:54:42.858Z,42.30
2018-04-08T17:57:10.388Z,42.90
2018-04-08T17:59:37.930Z,43.70
2018-04-08T18:02:05.533Z,43.30
2018-04-08T18:04:33.812Z,44.00
2018-04-08T18:07:01.388Z,44.00
2018-04-08T18:09:29.704Z,44.80
2018-04-08T18:11:57.224Z,44.70
2018-04-08T18:14:25.519Z,45.50
2018-04-08T18:16:53.036Z,45.40
2018-04-08T18:19:20.701Z,46.20
2018-04-08T18:21:48.225Z,46.40
2018-04-08T18:24:15.743Z,47.60
2018-04-08T18:26:43.300Z,48.40
2018-04-08T18:29:11.582Z,49.90
2018-04-08T18:31:39.098Z,49.90
2018-04-08T18:34:06.602Z,51.10
2018-04-08T18:36:34.142Z,52.40
2018-04-08T18:39:02.505Z,54.80
2018-04-08T18:41:30.051Z,54.70
2018-04-08T18:43:57.621Z,56.50
2018-04-08T18:46:25.918Z,60.00
2018-04-08T18:48:53.444Z,60.00
2018-04-08T18:51:21.009Z,61.40
2018-04-08T18:53:48.494Z,63.20
2018-04-08T18:56:16.053Z,64.90
2018-04-08T19:01:17.755Z,65.00
2018-04-08T19:03:46.222Z,67.40
2018-04-08T19:06:13.776Z,68.20
2018-04-08T19:08:41.288Z,68.40
2018-04-08T19:11:09.616Z,70.60
2018-04-08T19:13:37.138Z,70.30
2018-04-08T19:16:05.457Z,70.10
2018-04-08T19:18:32.945Z,70.00
2018-04-08T19:21:01.302Z,71.50
2018-04-08T19:23:28.877Z,70.60
2018-04-08T19:25:56.419Z,70.80
2018-04-08T19:28:23.946Z,71.60
2018-04-08T19:30:51.470Z,72.60
2018-04-08T19:33:19.159Z,72.70
2018-04-08T19:35:46.693Z,73.00
2018-04-08T19:38:15.054Z,72.50
2018-04-08T19:40:42.545Z,72.40
2018-04-08T19:43:10.831Z,75.70
2018-04-08T19:45:38.373Z,75.80
2018-04-08T19:48:06.766Z,76.20
2018-04-08T19:50:34.337Z,76.20
2018-04-08T19:53:01.916Z,78.00
2018-04-08T19:55:29.571Z,77.80
2018-04-08T19:57:57.110Z,78.90
2018-04-08T20:00:24.849Z,79.20
2018-04-08T20:02:53.123Z,81.40
2018-04-08T20:05:22.364Z,82.20
2018-04-08T20:07:49.892Z,82.10
2018-04-08T20:10:17.454Z,82.00
2018-04-08T20:12:45.022Z,82.50
2018-04-08T20:15:12.532Z,82.60
2018-04-08T20:17:40.090Z,83.20
2018-04-08T20:20:07.634Z,83.60
2018-04-08T20:22:35.144Z,83.50
2018-04-08T20:25:02.686Z,83.90
2018-04-08T20:27:30.986Z,86.60
2018-04-08T20:29:59.577Z,86.10
2018-04-08T20:32:27.117Z,86.00
2018-04-08T20:34:54.639Z,86.90
2018-04-08T20:37:22.179Z,86.30
2018-04-08T20:39:49.722Z,86.90
2018-04-08T20:42:17.248Z,88.00
2018-04-08T20:44:44.787Z,86.90
2018-04-08T20:47:12.334Z,87.30
2018-04-08T20:49:40.618Z,87.20
2018-04-08T20:52:09.034Z,87.10
2018-04-08T20:54:36.738Z,87.00
2018-04-08T20:57:04.272Z,87.50
2018-04-08T20:59:32.110Z,86.00
2018-04-08T21:01:59.636Z,88.10
2018-04-08T21:04:28.012Z,87.30
2018-04-08T21:06:56.746Z,88.30
2018-04-08T21:09:24.260Z,88.30
2018-04-08T21:11:52.579Z,90.00
2018-04-08T21:14:20.100Z,90.00
2018-04-08T21:16:48.396Z,89.70
2018-04-08T21:19:15.918Z,89.70
2018-04-08T21:21:44.279Z,88.40
2018-04-08T21:24:11.767Z,88.30
2018-04-08T21:26:40.073Z,89.70
2018-04-08T21:29:07.588Z,89.70
2018-04-08T21:31:35.092Z,89.20
2018-04-08T21:34:02.622Z,90.20
2018-04-08T21:36:30.142Z,90.60
2018-04-08T21:38:57.663Z,90.80
2018-04-08T21:41:25.213Z,91.10
2018-04-08T21:43:52.733Z,90.80
2018-04-08T21:46:20.241Z,90.90
2018-04-08T21:48:47.788Z,91.00
2018-04-08T21:51:15.298Z,91.10
2018-04-08T21:53:43.598Z,91.90
2018-04-08T21:56:11.123Z,91.90
2018-04-08T21:58:38.669Z,92.00
2018-04-08T22:01:06.174Z,92.20
2018-04-08T22:03:33.692Z,92.40
2018-04-08T22:06:01.244Z,92.40
2018-04-08T22:08:28.738Z,92.60
2018-04-08T22:10:57.059Z,92.80
2018-04-08T22:13:24.602Z,92.80
2018-04-08T22:15:52.114Z,93.10
2018-04-08T22:18:20.402Z,93.20
2018-04-08T22:20:48.661Z,93.10
2018-04-08T22:23:16.958Z,93.20
2018-04-08T22:25:45.237Z,92.70
2018-04-08T22:28:13.525Z,92.70
2018-04-08T22:30:41.071Z,92.70
2018-04-08T22:33:08.582Z,92.80
2018-04-08T22:35:36.119Z,92.90
2018-04-08T22:38:03.694Z,92.80
2018-04-08T22:40:32.064Z,93.20
2018-04-08T22:42:59.591Z,93.20
2018-04-08T22:45:27.135Z,93.40
2018-04-08T22:47:54.668Z,93.50
2018-04-08T22:50:22.213Z,93.70
2018-04-08T22:52:49.750Z,93.70
2018-04-08T22:55:17.306Z,93.90
2018-04-08T22:57:44.828Z,93.90
2018-04-08T23:00:13.259Z,94.20
2018-04-08T23:02:40.842Z,94.30
2018-04-08T23:05:09.174Z,94.50
2018-04-08T23:07:36.726Z,94.40
2018-04-08T23:10:04.424Z,94.70
2018-04-08T23:12:32.209Z,94.80
2018-04-08T23:15:00.509Z,95.10
2018-04-08T23:17:28.112Z,95.00
2018-04-08T23:19:55.650Z,95.00
2018-04-08T23:22:23.715Z,95.00
2018-04-08T23:24:51.267Z,95.10
2018-04-08T23:27:18.790Z,95.10
2018-04-08T23:29:47.101Z,95.30
2018-04-08T23:32:14.696Z,95.30
2018-04-08T23:34:42.243Z,95.40
2018-04-08T23:37:09.749Z,95.70
2018-04-08T23:39:38.017Z,95.90
2018-04-08T23:42:06.611Z,96.10
2018-04-08T23:44:34.874Z,96.40
2018-04-08T23:47:03.286Z,96.30
2018-04-08T23:49:30.798Z,96.30
2018-04-08T23:51:58.315Z,96.20
2018-04-08T23:54:25.855Z,96.20
2018-04-08T23:56:53.358Z,95.80
2018-04-08T23:59:20.879Z,95.60
